PWSweather.com
Personal Weather Stations
Station Observations
KVAGLENALL
West Henrico, Glen Allen, VA 23060-6503

West HenricoGlen Allen, VA 23060-6503

Lat: 37.6554, Lon: -77.5693

Elevation: 273

Station Type: Davis Vantage Pro II

www.glenallenweather.com

High Low Average
Temperature 59.6°F15.3°C 36.1°F2.3°C 47.5°F8.6°C
Dew Point 45.0°F7.2°C 21.7°F-5.7°C 32.5°F0.3°C
Winds 14.0 mph 22.5 kmh 1.0 mph 1.6 kmh 6.0 mph SSW9.7 kmh SSW
Wind Gusts 17.2 mph27.7 kmh 4.0 mph6.4 kmh 11.0 mph17.7 kmh
Humidity 73% 43% 56%
Pressure 30.11 in1019.6 mb 29.86 in1011.2 mb -
Precipitation 0.00 in0.0 mm - -
Hour Temp Dew Point Humidity Winds Wind Gusts Pressure Precip Precip Rate Daily Precip Total
12:00 AM 37.8°F3.2°C 21.3°F-5.9°C 51% 12.0 mph S19.3 kmh S 13.1 mph21.1 kmh 30.11 in1019.6 mb 0.00 in0.0 mm 0.00 in0.0 mm 0.00 in0.0 mm
12:15 AM 37.7°F3.2°C 21.2°F-6.0°C 51% 8.0 mph S12.9 kmh S 17.2 mph27.7 kmh 30.11 in1019.6 mb 0.00 in0.0 mm 0.00 in0.0 mm 0.00 in0.0 mm
12:30 AM 37.7°F3.2°C 21.7°F-5.7°C 52% 9.0 mph SW14.5 kmh SW 20.2 mph32.5 kmh 30.11 in1019.6 mb 0.00 in0.0 mm 0.00 in0.0 mm 0.00 in0.0 mm
12:45 AM 37.7°F3.2°C 21.7°F-5.7°C 52% 11.0 mph SE17.7 kmh SE 19.2 mph30.9 kmh 30.10 in1019.3 mb 0.00 in0.0 mm 0.00 in0.0 mm 0.00 in0.0 mm
01:00 AM 37.7°F3.2°C 21.7°F-5.7°C 52% 8.0 mph SW12.9 kmh SW 16.2 mph26.1 kmh 30.11 in1019.6 mb 0.00 in0.0 mm 0.00 in0.0 mm 0.00 in0.0 mm
01:15 AM 37.5°F3.1°C 21.9°F-5.6°C 53% 5.0 mph S8.0 kmh S 12.1 mph19.5 kmh 30.10 in1019.3 mb 0.00 in0.0 mm 0.00 in0.0 mm 0.00 in0.0 mm
01:30 AM 37.6°F3.1°C 22.0°F-5.6°C 53% 8.0 mph SW12.9 kmh SW 13.1 mph21.1 kmh 30.10 in1019.3 mb 0.00 in0.0 mm 0.00 in0.0 mm 0.00 in0.0 mm
01:45 AM 37.6°F3.1°C 22.5°F-5.3°C 54% 7.0 mph SSW11.3 kmh SSW 15.1 mph24.3 kmh 30.10 in1019.3 mb 0.00 in0.0 mm 0.00 in0.0 mm 0.00 in0.0 mm
02:00 AM 37.3°F2.9°C 22.2°F-5.4°C 54% 14.0 mph SW22.5 kmh SW 14.1 mph22.7 kmh 30.09 in1019.0 mb 0.00 in0.0 mm 0.00 in0.0 mm 0.00 in0.0 mm
02:15 AM 37.0°F2.8°C 22.3°F-5.4°C 55% 10.0 mph SW16.1 kmh SW 13.1 mph21.1 kmh 30.10 in1019.3 mb 0.00 in0.0 mm 0.00 in0.0 mm 0.00 in0.0 mm
02:30 AM 36.8°F2.7°C 22.6°F-5.2°C 56% 5.0 mph SW8.0 kmh SW 10.1 mph16.3 kmh 30.10 in1019.3 mb 0.00 in0.0 mm 0.00 in0.0 mm 0.00 in0.0 mm
02:45 AM 36.7°F2.6°C 22.5°F-5.3°C 56% 2.0 mph S3.2 kmh S 9.1 mph14.6 kmh 30.09 in1019.0 mb 0.00 in0.0 mm 0.00 in0.0 mm 0.00 in0.0 mm
03:00 AM 36.7°F2.6°C 22.5°F-5.3°C 56% 4.0 mph WSW6.4 kmh WSW 12.1 mph19.5 kmh 30.10 in1019.3 mb 0.00 in0.0 mm 0.00 in0.0 mm 0.00 in0.0 mm
03:15 AM 36.6°F2.6°C 22.8°F-5.1°C 57% 5.0 mph SSW8.0 kmh SSW 9.1 mph14.6 kmh 30.10 in1019.3 mb 0.00 in0.0 mm 0.00 in0.0 mm 0.00 in0.0 mm
03:30 AM 36.3°F2.4°C 22.9°F-5.1°C 58% 6.0 mph SW9.7 kmh SW 12.1 mph19.5 kmh 30.09 in1019.0 mb 0.00 in0.0 mm 0.00 in0.0 mm 0.00 in0.0 mm
03:45 AM 36.5°F2.5°C 23.1°F-4.9°C 58% 5.0 mph SW8.0 kmh SW 10.1 mph16.3 kmh 30.10 in1019.3 mb 0.00 in0.0 mm 0.00 in0.0 mm 0.00 in0.0 mm
04:00 AM 36.3°F2.4°C 22.9°F-5.1°C 58% 7.0 mph S11.3 kmh S 13.1 mph21.1 kmh 30.10 in1019.3 mb 0.00 in0.0 mm 0.00 in0.0 mm 0.00 in0.0 mm
04:15 AM 36.3°F2.4°C 23.3°F-4.8°C 59% 11.0 mph SSW17.7 kmh SSW 14.1 mph22.7 kmh 30.10 in1019.3 mb 0.00 in0.0 mm 0.00 in0.0 mm 0.00 in0.0 mm
04:30 AM 36.1°F2.3°C 23.6°F-4.7°C 60% 8.0 mph SW12.9 kmh SW 12.1 mph19.5 kmh 30.10 in1019.3 mb 0.00 in0.0 mm 0.00 in0.0 mm 0.00 in0.0 mm
04:45 AM 36.2°F2.3°C 23.7°F-4.6°C 60% 4.0 mph SW6.4 kmh SW 8.1 mph13.0 kmh 30.09 in1019.0 mb 0.00 in0.0 mm 0.00 in0.0 mm 0.00 in0.0 mm
05:00 AM 36.3°F2.4°C 23.7°F-4.6°C 60% 10.0 mph SSW16.1 kmh SSW 11.1 mph17.9 kmh 30.09 in1019.0 mb 0.00 in0.0 mm 0.00 in0.0 mm 0.00 in0.0 mm
05:15 AM 36.5°F2.5°C 24.3°F-4.3°C 61% 5.0 mph SW8.0 kmh SW 13.1 mph21.1 kmh 30.09 in1019.0 mb 0.00 in0.0 mm 0.00 in0.0 mm 0.00 in0.0 mm
05:30 AM 36.7°F2.6°C 24.5°F-4.2°C 61% 8.0 mph SSW12.9 kmh SSW 13.1 mph21.1 kmh 30.09 in1019.0 mb 0.00 in0.0 mm 0.00 in0.0 mm 0.00 in0.0 mm
05:45 AM 37.0°F2.8°C 24.8°F-4.0°C 61% 9.0 mph SSW14.5 kmh SSW 13.1 mph21.1 kmh 30.09 in1019.0 mb 0.00 in0.0 mm 0.00 in0.0 mm 0.00 in0.0 mm
06:00 AM 37.1°F2.8°C 24.9°F-3.9°C 61% 8.0 mph SW12.9 kmh SW 13.1 mph21.1 kmh 30.09 in1019.0 mb 0.00 in0.0 mm 0.00 in0.0 mm 0.00 in0.0 mm
06:15 AM 37.4°F3.0°C 25.6°F-3.6°C 62% 7.0 mph SW11.3 kmh SW 12.1 mph19.5 kmh 30.09 in1019.0 mb 0.00 in0.0 mm 0.00 in0.0 mm 0.00 in0.0 mm
06:30 AM 37.4°F3.0°C 25.6°F-3.6°C 62% 9.0 mph SW14.5 kmh SW 12.1 mph19.5 kmh 30.08 in1018.6 mb 0.00 in0.0 mm 0.00 in0.0 mm 0.00 in0.0 mm
06:45 AM 37.6°F3.1°C 25.8°F-3.4°C 62% 9.0 mph SSW14.5 kmh SSW 12.1 mph19.5 kmh 30.08 in1018.6 mb 0.00 in0.0 mm 0.00 in0.0 mm 0.00 in0.0 mm
07:00 AM 37.5°F3.1°C 26.1°F-3.3°C 63% 10.0 mph SSW16.1 kmh SSW 13.1 mph21.1 kmh 30.08 in1018.6 mb 0.00 in0.0 mm 0.00 in0.0 mm 0.00 in0.0 mm
07:15 AM 37.5°F3.1°C 26.1°F-3.3°C 63% 3.0 mph SW4.8 kmh SW 12.1 mph19.5 kmh 30.09 in1019.0 mb 0.00 in0.0 mm 0.00 in0.0 mm 0.00 in0.0 mm
07:30 AM 37.4°F3.0°C 26.3°F-3.2°C 64% 7.0 mph SW11.3 kmh SW 13.1 mph21.1 kmh 30.09 in1019.0 mb 0.00 in0.0 mm 0.00 in0.0 mm 0.00 in0.0 mm
07:45 AM 37.3°F2.9°C 26.2°F-3.2°C 64% 5.0 mph SW8.0 kmh SW 11.1 mph17.9 kmh 30.09 in1019.0 mb 0.00 in0.0 mm 0.00 in0.0 mm 0.00 in0.0 mm
08:00 AM 37.3°F2.9°C 26.2°F-3.2°C 64% 6.0 mph SSW9.7 kmh SSW 14.1 mph22.7 kmh 30.09 in1019.0 mb 0.00 in0.0 mm 0.00 in0.0 mm 0.00 in0.0 mm
08:15 AM 37.1°F2.8°C 26.4°F-3.1°C 65% 6.0 mph SSW9.7 kmh SSW 9.1 mph14.6 kmh 30.09 in1019.0 mb 0.00 in0.0 mm 0.00 in0.0 mm 0.00 in0.0 mm
08:30 AM 37.1°F2.8°C 26.4°F-3.1°C 65% 7.0 mph SSW11.3 kmh SSW 10.1 mph16.3 kmh 30.09 in1019.0 mb 0.00 in0.0 mm 0.00 in0.0 mm 0.00 in0.0 mm
08:45 AM 37.3°F2.9°C 26.6°F-3.0°C 65% 9.0 mph SW14.5 kmh SW 11.1 mph17.9 kmh 30.09 in1019.0 mb 0.00 in0.0 mm 0.00 in0.0 mm 0.00 in0.0 mm
09:00 AM 37.9°F3.3°C 27.2°F-2.7°C 65% 8.0 mph S12.9 kmh S 9.1 mph14.6 kmh 30.09 in1019.0 mb 0.00 in0.0 mm 0.00 in0.0 mm 0.00 in0.0 mm
09:15 AM 38.7°F3.7°C 27.6°F-2.4°C 64% 5.0 mph SSW8.0 kmh SSW 13.1 mph21.1 kmh 30.09 in1019.0 mb 0.00 in0.0 mm 0.00 in0.0 mm 0.00 in0.0 mm
09:30 AM 39.3°F4.1°C 28.2°F-2.1°C 64% 7.0 mph SW11.3 kmh SW 9.1 mph14.6 kmh 30.09 in1019.0 mb 0.00 in0.0 mm 0.00 in0.0 mm 0.00 in0.0 mm
09:45 AM 40.5°F4.7°C 28.9°F-1.7°C 63% 9.0 mph SSW14.5 kmh SSW 9.1 mph14.6 kmh 30.08 in1018.6 mb 0.00 in0.0 mm 0.00 in0.0 mm 0.00 in0.0 mm
10:00 AM 41.1°F5.1°C 28.7°F-1.8°C 61% 9.0 mph SSW14.5 kmh SSW 13.1 mph21.1 kmh 30.09 in1019.0 mb 0.00 in0.0 mm 0.00 in0.0 mm 0.00 in0.0 mm
10:15 AM 42.2°F5.7°C 29.3°F-1.5°C 60% 6.0 mph W9.7 kmh W 10.1 mph16.3 kmh 30.09 in1019.0 mb 0.00 in0.0 mm 0.00 in0.0 mm 0.00 in0.0 mm
10:30 AM 43.3°F6.3°C 29.6°F-1.3°C 58% 11.0 mph SSW17.7 kmh SSW 17.2 mph27.7 kmh 30.09 in1019.0 mb 0.00 in0.0 mm 0.00 in0.0 mm 0.00 in0.0 mm
10:45 AM 43.7°F6.5°C 29.9°F-1.2°C 58% 3.0 mph SSW4.8 kmh SSW 7.1 mph11.4 kmh 30.09 in1019.0 mb 0.00 in0.0 mm 0.00 in0.0 mm 0.00 in0.0 mm
11:00 AM 44.2°F6.8°C 29.5°F-1.4°C 56% 7.0 mph S11.3 kmh S 9.1 mph14.6 kmh 30.09 in1019.0 mb 0.00 in0.0 mm 0.00 in0.0 mm 0.00 in0.0 mm
11:15 AM 45.5°F7.5°C 29.9°F-1.2°C 54% 12.0 mph SW19.3 kmh SW 14.1 mph22.7 kmh 30.08 in1018.6 mb 0.00 in0.0 mm 0.00 in0.0 mm 0.00 in0.0 mm
11:30 AM 47.3°F8.5°C 31.6°F-0.2°C 54% 3.0 mph SW4.8 kmh SW 9.1 mph14.6 kmh 30.08 in1018.6 mb 0.00 in0.0 mm 0.00 in0.0 mm 0.00 in0.0 mm
11:45 AM 48.1°F8.9°C 30.4°F-0.9°C 50% 8.0 mph SW12.9 kmh SW 14.1 mph22.7 kmh 30.08 in1018.6 mb 0.00 in0.0 mm 0.00 in0.0 mm 0.00 in0.0 mm
12:00 PM 49.0°F9.4°C 31.2°F-0.4°C 50% 4.0 mph SW6.4 kmh SW 9.1 mph14.6 kmh 30.08 in1018.6 mb 0.00 in0.0 mm 0.00 in0.0 mm 0.00 in0.0 mm
12:15 PM 50.4°F10.2°C 31.9°F-0.1°C 49% 5.0 mph SW8.0 kmh SW 10.1 mph16.3 kmh 30.07 in1018.3 mb 0.00 in0.0 mm 0.00 in0.0 mm 0.00 in0.0 mm
12:30 PM 51.7°F10.9°C 32.6°F0.3°C 48% 9.0 mph SW14.5 kmh SW 16.2 mph26.1 kmh 30.06 in1017.9 mb 0.00 in0.0 mm 0.00 in0.0 mm 0.00 in0.0 mm
12:45 PM 52.7°F11.5°C 32.5°F0.3°C 46% 11.0 mph S17.7 kmh S 17.2 mph27.7 kmh 30.05 in1017.6 mb 0.00 in0.0 mm 0.00 in0.0 mm 0.00 in0.0 mm
01:00 PM 53.3°F11.8°C 33.0°F0.6°C 46% 5.0 mph SW8.0 kmh SW 14.1 mph22.7 kmh 30.04 in1017.3 mb 0.00 in0.0 mm 0.00 in0.0 mm 0.00 in0.0 mm
01:15 PM 54.6°F12.6°C 33.7°F0.9°C 45% 6.0 mph SW9.7 kmh SW 10.1 mph16.3 kmh 30.03 in1016.9 mb 0.00 in0.0 mm 0.00 in0.0 mm 0.00 in0.0 mm
01:30 PM 54.4°F12.4°C 34.0°F1.1°C 46% 1.0 mph SSW1.6 kmh SSW 12.1 mph19.5 kmh 30.02 in1016.6 mb 0.00 in0.0 mm 0.00 in0.0 mm 0.00 in0.0 mm
01:45 PM 55.1°F12.8°C 34.1°F1.2°C 45% 10.0 mph SSW16.1 kmh SSW 17.2 mph27.7 kmh 30.01 in1016.3 mb 0.00 in0.0 mm 0.00 in0.0 mm 0.00 in0.0 mm
02:00 PM 55.2°F12.9°C 34.8°F1.6°C 46% 12.0 mph S19.3 kmh S 14.1 mph22.7 kmh 30.00 in1015.9 mb 0.00 in0.0 mm 0.00 in0.0 mm 0.00 in0.0 mm
02:15 PM 56.4°F13.6°C 35.3°F1.8°C 45% 4.0 mph S6.4 kmh S 13.1 mph21.1 kmh 29.99 in1015.6 mb 0.00 in0.0 mm 0.00 in0.0 mm 0.00 in0.0 mm
02:30 PM 57.7°F14.3°C 36.0°F2.2°C 44% 9.0 mph SSW14.5 kmh SSW 9.1 mph14.6 kmh 29.98 in1015.2 mb 0.00 in0.0 mm 0.00 in0.0 mm 0.00 in0.0 mm
02:45 PM 57.5°F14.2°C 35.2°F1.8°C 43% 11.0 mph SW17.7 kmh SW 11.1 mph17.9 kmh 29.97 in1014.9 mb 0.00 in0.0 mm 0.00 in0.0 mm 0.00 in0.0 mm
03:00 PM 57.5°F14.2°C 36.3°F2.4°C 45% 10.0 mph S16.1 kmh S 10.1 mph16.3 kmh 29.97 in1014.9 mb 0.00 in0.0 mm 0.00 in0.0 mm 0.00 in0.0 mm
03:15 PM 56.9°F13.8°C 35.8°F2.1°C 45% 7.0 mph SW11.3 kmh SW 13.1 mph21.1 kmh 29.97 in1014.9 mb 0.00 in0.0 mm 0.00 in0.0 mm 0.00 in0.0 mm
03:30 PM 56.8°F13.8°C 36.3°F2.4°C 46% 2.0 mph SW3.2 kmh SW 9.1 mph14.6 kmh 29.97 in1014.9 mb 0.00 in0.0 mm 0.00 in0.0 mm 0.00 in0.0 mm
03:45 PM 57.4°F14.1°C 36.8°F2.7°C 46% 5.0 mph S8.0 kmh S 7.1 mph11.4 kmh 29.96 in1014.6 mb 0.00 in0.0 mm 0.00 in0.0 mm 0.00 in0.0 mm
04:00 PM 57.9°F14.4°C 37.8°F3.2°C 47% 5.0 mph WSW8.0 kmh WSW 7.1 mph11.4 kmh 29.96 in1014.6 mb 0.00 in0.0 mm 0.00 in0.0 mm 0.00 in0.0 mm
04:15 PM 59.6°F15.3°C 37.7°F3.2°C 44% 8.0 mph S12.9 kmh S 16.2 mph26.1 kmh 29.96 in1014.6 mb 0.00 in0.0 mm 0.00 in0.0 mm 0.00 in0.0 mm
04:30 PM 58.9°F14.9°C 37.0°F2.8°C 44% 9.0 mph SSW14.5 kmh SSW 15.1 mph24.3 kmh 29.96 in1014.6 mb 0.00 in0.0 mm 0.00 in0.0 mm 0.00 in0.0 mm
04:45 PM 58.4°F14.7°C 37.2°F2.9°C 45% 10.0 mph SSW16.1 kmh SSW 17.2 mph27.7 kmh 29.96 in1014.6 mb 0.00 in0.0 mm 0.00 in0.0 mm 0.00 in0.0 mm
05:00 PM 58.2°F14.6°C 37.5°F3.1°C 46% 4.0 mph SW6.4 kmh SW 12.1 mph19.5 kmh 29.96 in1014.6 mb 0.00 in0.0 mm 0.00 in0.0 mm 0.00 in0.0 mm
05:15 PM 58.2°F14.6°C 37.5°F3.1°C 46% 4.0 mph SW6.4 kmh SW 6.1 mph9.8 kmh 29.96 in1014.6 mb 0.00 in0.0 mm 0.00 in0.0 mm 0.00 in0.0 mm
05:30 PM 58.0°F14.4°C 37.9°F3.3°C 47% 5.0 mph SSW8.0 kmh SSW 8.1 mph13.0 kmh 29.96 in1014.6 mb 0.00 in0.0 mm 0.00 in0.0 mm 0.00 in0.0 mm
05:45 PM 58.1°F14.5°C 38.0°F3.3°C 47% 4.0 mph S6.4 kmh S 11.1 mph17.9 kmh 29.95 in1014.2 mb 0.00 in0.0 mm 0.00 in0.0 mm 0.00 in0.0 mm
06:00 PM 57.9°F14.4°C 37.8°F3.2°C 47% 3.0 mph S4.8 kmh S 8.1 mph13.0 kmh 29.95 in1014.2 mb 0.00 in0.0 mm 0.00 in0.0 mm 0.00 in0.0 mm
06:15 PM 57.6°F14.2°C 37.5°F3.1°C 47% 5.0 mph S8.0 kmh S 11.1 mph17.9 kmh 29.94 in1013.9 mb 0.00 in0.0 mm 0.00 in0.0 mm 0.00 in0.0 mm
06:30 PM 56.7°F13.7°C 37.2°F2.9°C 48% 4.0 mph SSW6.4 kmh SSW 6.1 mph9.8 kmh 29.94 in1013.9 mb 0.00 in0.0 mm 0.00 in0.0 mm 0.00 in0.0 mm
06:45 PM 56.0°F13.3°C 37.6°F3.1°C 50% 5.0 mph SSE8.0 kmh SSE 7.1 mph11.4 kmh 29.93 in1013.5 mb 0.00 in0.0 mm 0.00 in0.0 mm 0.00 in0.0 mm
07:00 PM 55.6°F13.1°C 37.3°F2.9°C 50% 2.0 mph S3.2 kmh S 4.0 mph6.4 kmh 29.93 in1013.5 mb 0.00 in0.0 mm 0.00 in0.0 mm 0.00 in0.0 mm
07:15 PM 55.1°F12.8°C 37.3°F2.9°C 51% 3.0 mph S4.8 kmh S 7.1 mph11.4 kmh 29.93 in1013.5 mb 0.00 in0.0 mm 0.00 in0.0 mm 0.00 in0.0 mm
07:30 PM 54.9°F12.7°C 37.6°F3.1°C 52% 2.0 mph SSW3.2 kmh SSW 7.1 mph11.4 kmh 29.93 in1013.5 mb 0.00 in0.0 mm 0.00 in0.0 mm 0.00 in0.0 mm
07:45 PM 54.2°F12.3°C 37.4°F3.0°C 53% 2.0 mph S3.2 kmh S 6.1 mph9.8 kmh 29.93 in1013.5 mb 0.00 in0.0 mm 0.00 in0.0 mm 0.00 in0.0 mm
08:00 PM 54.0°F12.2°C 37.7°F3.2°C 54% 4.0 mph S6.4 kmh S 6.1 mph9.8 kmh 29.92 in1013.2 mb 0.00 in0.0 mm 0.00 in0.0 mm 0.00 in0.0 mm
08:15 PM 53.9°F12.2°C 38.1°F3.4°C 55% 7.0 mph S11.3 kmh S 7.1 mph11.4 kmh 29.92 in1013.2 mb 0.00 in0.0 mm 0.00 in0.0 mm 0.00 in0.0 mm
08:30 PM 53.9°F12.2°C 38.6°F3.7°C 56% 2.0 mph SSW3.2 kmh SSW 6.1 mph9.8 kmh 29.92 in1013.2 mb 0.00 in0.0 mm 0.00 in0.0 mm 0.00 in0.0 mm
08:45 PM 53.8°F12.1°C 39.4°F4.1°C 58% 4.0 mph SW6.4 kmh SW 8.1 mph13.0 kmh 29.91 in1012.9 mb 0.00 in0.0 mm 0.00 in0.0 mm 0.00 in0.0 mm
09:00 PM 53.8°F12.1°C 40.2°F4.6°C 60% 5.0 mph SSW8.0 kmh SSW 7.1 mph11.4 kmh 29.90 in1012.5 mb 0.00 in0.0 mm 0.00 in0.0 mm 0.00 in0.0 mm
09:15 PM 53.4°F11.9°C 40.7°F4.8°C 62% 5.0 mph SSW8.0 kmh SSW 7.1 mph11.4 kmh 29.90 in1012.5 mb 0.00 in0.0 mm 0.00 in0.0 mm 0.00 in0.0 mm
09:30 PM 53.3°F11.8°C 41.4°F5.2°C 64% 9.0 mph SSW14.5 kmh SSW 10.1 mph16.3 kmh 29.89 in1012.2 mb 0.00 in0.0 mm 0.00 in0.0 mm 0.00 in0.0 mm
09:45 PM 53.5°F11.9°C 42.4°F5.8°C 66% 4.0 mph S6.4 kmh S 9.1 mph14.6 kmh 29.88 in1011.9 mb 0.00 in0.0 mm 0.00 in0.0 mm 0.00 in0.0 mm
10:00 PM 53.5°F11.9°C 43.2°F6.2°C 68% 8.0 mph SW12.9 kmh SW 11.1 mph17.9 kmh 29.87 in1011.5 mb 0.00 in0.0 mm 0.00 in0.0 mm 0.00 in0.0 mm
10:15 PM 53.4°F11.9°C 43.1°F6.2°C 68% 8.0 mph SW12.9 kmh SW 11.1 mph17.9 kmh 29.88 in1011.9 mb 0.00 in0.0 mm 0.00 in0.0 mm 0.00 in0.0 mm
10:30 PM 53.1°F11.7°C 43.2°F6.2°C 69% 6.0 mph S9.7 kmh S 9.1 mph14.6 kmh 29.87 in1011.5 mb 0.00 in0.0 mm 0.00 in0.0 mm 0.00 in0.0 mm
10:45 PM 53.2°F11.8°C 43.7°F6.5°C 70% 6.0 mph SSW9.7 kmh SSW 10.1 mph16.3 kmh 29.87 in1011.5 mb 0.00 in0.0 mm 0.00 in0.0 mm 0.00 in0.0 mm
11:00 PM 53.5°F11.9°C 43.6°F6.4°C 69% 1.0 mph SSE1.6 kmh SSE 6.1 mph9.8 kmh 29.86 in1011.2 mb 0.00 in0.0 mm 0.00 in0.0 mm 0.00 in0.0 mm
11:15 PM 53.7°F12.1°C 43.8°F6.6°C 69% 4.0 mph SW6.4 kmh SW 7.1 mph11.4 kmh 29.86 in1011.2 mb 0.00 in0.0 mm 0.00 in0.0 mm 0.00 in0.0 mm
11:30 PM 53.8°F12.1°C 43.5°F6.4°C 68% 8.0 mph SSW12.9 kmh SSW 11.1 mph17.9 kmh 29.86 in1011.2 mb 0.00 in0.0 mm 0.00 in0.0 mm 0.00 in0.0 mm
11:45 PM 53.7°F12.1°C 43.8°F6.6°C 69% 6.0 mph SW9.7 kmh SW 9.1 mph14.6 kmh 29.86 in1011.2 mb 0.00 in0.0 mm 0.00 in0.0 mm 0.00 in0.0 mm